createdAt,value
2022-11-25T00:00:00.565Z,80.17
2022-11-25T00:00:13.042Z,80.13
2022-11-25T00:00:24.935Z,79.71
2022-11-25T00:00:36.862Z,80.12
2022-11-25T00:00:49.301Z,79.74
2022-11-25T00:01:12.352Z,80.15
2022-11-25T00:01:26.921Z,80.02
2022-11-25T00:01:38.841Z,79.77
2022-11-25T00:01:51.594Z,79.36
2022-11-25T00:02:03.603Z,79.20
2022-11-25T00:02:15.632Z,78.90
2022-11-25T00:02:27.697Z,78.59
2022-11-25T00:02:44.620Z,78.86
2022-11-25T00:02:56.689Z,79.06
2022-11-25T00:03:08.758Z,79.10
2022-11-25T00:03:20.767Z,79.04
2022-11-25T00:03:32.999Z,79.23
2022-11-25T00:03:46.259Z,78.81
2022-11-25T00:03:59.088Z,78.98
2022-11-25T00:04:11.051Z,78.85
2022-11-25T00:04:22.963Z,78.87
2022-11-25T00:04:37.121Z,78.81
2022-11-25T00:04:49.240Z,78.12
2022-11-25T00:05:01.108Z,78.26
2022-11-25T00:05:13.253Z,78.39
2022-11-25T00:05:26.541Z,78.61
2022-11-25T00:05:38.521Z,78.71
2022-11-25T00:05:50.441Z,78.18
2022-11-25T00:06:26.383Z,78.39
2022-11-25T00:06:38.386Z,78.32
2022-11-25T00:06:50.331Z,78.50
2022-11-25T00:07:03.088Z,78.28
2022-11-25T00:07:15.003Z,78.28
2022-11-25T00:07:26.973Z,78.14
2022-11-25T00:07:39.109Z,78.17
2022-11-25T00:07:51.156Z,78.61
2022-11-25T00:08:03.146Z,78.68
2022-11-25T00:08:15.059Z,78.56
2022-11-25T00:08:28.262Z,78.21
2022-11-25T00:08:41.752Z,78.17
2022-11-25T00:08:56.792Z,78.61
2022-11-25T00:09:12.417Z,78.68
2022-11-25T00:09:24.381Z,78.94
2022-11-25T00:09:36.390Z,78.72
2022-11-25T00:09:48.303Z,78.83
2022-11-25T00:10:00.183Z,78.64
2022-11-25T00:10:12.090Z,78.73
2022-11-25T00:10:24.046Z,79.02
2022-11-25T00:10:36.140Z,79.20
2022-11-25T00:10:48.086Z,78.39
2022-11-25T00:11:03.281Z,77.75
2022-11-25T00:11:16.086Z,78.11
2022-11-25T00:11:28.715Z,77.95
2022-11-25T00:11:42.347Z,77.81
2022-11-25T00:11:54.250Z,77.86
2022-11-25T00:12:06.306Z,78.18
2022-11-25T00:12:18.304Z,77.89
2022-11-25T00:12:30.185Z,78.03
2022-11-25T00:12:42.100Z,78.19
2022-11-25T00:12:53.980Z,78.29
2022-11-25T00:13:05.866Z,78.50
2022-11-25T00:13:17.738Z,78.66
2022-11-25T00:13:29.748Z,78.76
2022-11-25T00:13:42.978Z,78.37
2022-11-25T00:13:56.393Z,78.88
2022-11-25T00:14:12.160Z,79.06
2022-11-25T00:14:24.104Z,79.00
2022-11-25T00:14:36.317Z,79.30
2022-11-25T00:14:48.446Z,79.26
2022-11-25T00:15:00.334Z,79.34
2022-11-25T00:15:12.230Z,79.65
2022-11-25T00:15:24.177Z,79.74
2022-11-25T00:15:36.092Z,79.88
2022-11-25T00:15:48.104Z,79.99
2022-11-25T00:16:04.237Z,80.04
2022-11-25T00:16:18.644Z,80.25
2022-11-25T00:16:30.625Z,80.30
2022-11-25T00:16:47.923Z,80.37
2022-11-25T00:17:00.418Z,80.78
2022-11-25T00:17:12.379Z,80.71
2022-11-25T00:17:24.330Z,81.03
2022-11-25T00:17:36.355Z,80.48
2022-11-25T00:17:48.230Z,81.06
2022-11-25T00:18:00.090Z,80.98
2022-11-25T00:18:12.003Z,81.41
2022-11-25T00:18:23.944Z,81.06
2022-11-25T00:18:36.323Z,81.33
2022-11-25T00:18:50.749Z,81.43
2022-11-25T00:19:02.989Z,81.62
2022-11-25T00:19:14.863Z,81.26
2022-11-25T00:19:26.784Z,81.70
2022-11-25T00:19:38.707Z,81.86
2022-11-25T00:19:50.932Z,81.74
2022-11-25T00:20:05.889Z,81.85
2022-11-25T00:20:20.383Z,81.65
2022-11-25T00:20:32.296Z,81.64
2022-11-25T00:20:44.215Z,82.08
2022-11-25T00:20:56.120Z,82.09
2022-11-25T00:21:10.202Z,81.93
2022-11-25T00:21:24.879Z,82.34
2022-11-25T00:21:36.782Z,82.19
2022-11-25T00:21:48.748Z,82.17
2022-11-25T00:22:00.612Z,82.10
2022-11-25T00:22:12.564Z,82.37
2022-11-25T00:22:24.490Z,82.14
2022-11-25T00:22:36.978Z,82.34
2022-11-25T00:22:48.891Z,82.13
2022-11-25T00:23:00.823Z,82.54
2022-11-25T00:23:12.944Z,82.37
2022-11-25T00:23:27.956Z,82.73
2022-11-25T00:23:42.498Z,82.86
2022-11-25T00:23:56.967Z,82.40
2022-11-25T00:24:08.879Z,82.88
2022-11-25T00:24:20.781Z,82.24
2022-11-25T00:24:32.767Z,82.58
2022-11-25T00:24:44.764Z,82.89
2022-11-25T00:24:56.623Z,83.38
2022-11-25T00:25:08.909Z,83.09
2022-11-25T00:25:20.820Z,83.62
2022-11-25T00:25:32.734Z,83.25
2022-11-25T00:25:44.624Z,83.12
2022-11-25T00:25:56.540Z,83.03
2022-11-25T00:26:17.583Z,83.11
2022-11-25T00:26:32.732Z,83.18
2022-11-25T00:26:44.928Z,83.39
2022-11-25T00:26:56.853Z,83.51
2022-11-25T00:27:08.915Z,83.31
2022-11-25T00:27:20.792Z,83.42
2022-11-25T00:27:32.686Z,83.35
2022-11-25T00:27:44.609Z,83.19
2022-11-25T00:27:56.481Z,83.00
2022-11-25T00:28:08.363Z,83.22
2022-11-25T00:28:20.225Z,83.14
2022-11-25T00:28:32.100Z,83.36
2022-11-25T00:28:45.965Z,83.24
2022-11-25T00:28:59.689Z,82.93
2022-11-25T00:29:13.758Z,82.75
2022-11-25T00:29:25.661Z,82.80
2022-11-25T00:29:37.589Z,82.34
2022-11-25T00:29:49.461Z,82.42
2022-11-25T00:30:01.407Z,82.41
2022-11-25T00:30:13.693Z,82.31
2022-11-25T00:30:25.668Z,82.28
2022-11-25T00:30:37.698Z,82.14
2022-11-25T00:30:49.621Z,82.28
2022-11-25T00:31:09.680Z,82.36
2022-11-25T00:31:27.568Z,82.85
2022-11-25T00:31:41.031Z,82.94
2022-11-25T00:31:53.026Z,82.94
2022-11-25T00:32:05.027Z,82.66
2022-11-25T00:32:16.910Z,82.85
2022-11-25T00:32:28.886Z,82.66
2022-11-25T00:32:40.793Z,82.77
2022-11-25T00:32:53.967Z,82.67
2022-11-25T00:33:06.519Z,82.62
2022-11-25T00:33:18.526Z,82.75
2022-11-25T00:33:30.436Z,82.87
2022-11-25T00:33:42.913Z,83.06
2022-11-25T00:33:55.432Z,82.88
2022-11-25T00:34:07.877Z,82.86
2022-11-25T00:34:19.806Z,82.65
2022-11-25T00:34:31.682Z,83.11
2022-11-25T00:34:43.606Z,82.92
2022-11-25T00:34:55.516Z,82.54
2022-11-25T00:35:07.847Z,82.73
2022-11-25T00:35:19.918Z,82.56
2022-11-25T00:35:34.384Z,82.21
2022-11-25T00:35:46.297Z,82.09
2022-11-25T00:36:01.310Z,81.96
2022-11-25T00:36:28.921Z,81.80
2022-11-25T00:36:41.145Z,81.45
2022-11-25T00:36:56.429Z,81.60
2022-11-25T00:37:08.341Z,81.32
2022-11-25T00:37:20.229Z,81.47
2022-11-25T00:37:32.468Z,81.47
2022-11-25T00:37:44.393Z,81.26
2022-11-25T00:37:56.354Z,81.46
2022-11-25T00:38:08.294Z,81.39
2022-11-25T00:38:20.233Z,81.33
2022-11-25T00:38:32.209Z,81.20
2022-11-25T00:38:44.712Z,81.10
2022-11-25T00:39:01.931Z,80.65
2022-11-25T00:39:16.064Z,80.78
2022-11-25T00:39:28.774Z,80.70
2022-11-25T00:39:40.692Z,80.64
2022-11-25T00:39:52.566Z,80.35
2022-11-25T00:40:05.348Z,80.62
2022-11-25T00:40:17.328Z,80.13
2022-11-25T00:40:29.290Z,79.54
2022-11-25T00:40:41.181Z,79.58
2022-11-25T00:41:13.224Z,79.48
2022-11-25T00:41:44.304Z,78.57
2022-11-25T00:42:14.697Z,78.81
2022-11-25T00:42:45.019Z,79.41
2022-11-25T00:43:15.332Z,79.48
2022-11-25T00:43:45.693Z,80.24
2022-11-25T00:44:17.042Z,80.60
2022-11-25T00:44:41.832Z,80.56
2022-11-25T00:44:54.178Z,80.53
2022-11-25T00:45:06.738Z,80.59
2022-11-25T00:45:18.629Z,80.18
2022-11-25T00:45:30.523Z,80.16
2022-11-25T00:45:43.151Z,80.08
2022-11-25T00:45:55.217Z,79.98
2022-11-25T00:46:07.202Z,80.69
2022-11-25T00:46:19.147Z,80.98
2022-11-25T00:46:31.117Z,80.93
2022-11-25T00:46:43.243Z,80.80
2022-11-25T00:46:55.550Z,80.66
2022-11-25T00:47:25.493Z,80.26
2022-11-25T00:47:37.361Z,80.06
2022-11-25T00:47:49.234Z,80.33
2022-11-25T00:48:01.097Z,80.06
2022-11-25T00:48:13.077Z,80.52
2022-11-25T00:48:25.004Z,80.65
2022-11-25T00:48:36.897Z,81.66
2022-11-25T00:48:48.813Z,81.47
2022-11-25T00:49:00.679Z,81.63
2022-11-25T00:49:12.587Z,81.54
2022-11-25T00:49:24.556Z,81.85
2022-11-25T00:49:37.884Z,81.65
2022-11-25T00:49:53.380Z,81.93
2022-11-25T00:50:05.776Z,82.03
2022-11-25T00:50:17.656Z,82.03
2022-11-25T00:50:29.631Z,82.53
2022-11-25T00:50:42.680Z,82.45
2022-11-25T00:50:54.562Z,82.32
2022-11-25T00:51:06.430Z,82.70
2022-11-25T00:51:18.400Z,82.99
2022-11-25T00:51:30.399Z,82.96
2022-11-25T00:51:42.280Z,83.03
2022-11-25T00:51:54.633Z,83.12
2022-11-25T00:52:07.161Z,83.25
2022-11-25T00:52:24.362Z,83.11
2022-11-25T00:52:37.032Z,83.14
2022-11-25T00:52:48.996Z,83.13
2022-11-25T00:53:00.914Z,83.12
2022-11-25T00:53:12.781Z,82.74
2022-11-25T00:53:25.190Z,82.80
2022-11-25T00:53:37.059Z,83.01
2022-11-25T00:53:48.949Z,82.68
2022-11-25T00:54:00.919Z,82.79
2022-11-25T00:54:12.921Z,82.66
2022-11-25T00:54:24.898Z,82.73
2022-11-25T00:54:37.034Z,83.02
2022-11-25T00:54:49.932Z,83.28
2022-11-25T00:55:01.807Z,83.21
2022-11-25T00:55:13.811Z,83.44
2022-11-25T00:55:45.695Z,83.67
2022-11-25T00:56:13.892Z,83.28
2022-11-25T00:56:26.300Z,83.30
2022-11-25T00:56:38.166Z,82.90
2022-11-25T00:56:50.725Z,83.05
2022-11-25T00:57:02.792Z,83.04
2022-11-25T00:57:16.294Z,83.01
2022-11-25T00:57:29.413Z,83.18
2022-11-25T00:57:41.328Z,82.85
2022-11-25T00:57:53.249Z,83.02
2022-11-25T00:58:05.169Z,83.22
2022-11-25T00:58:17.097Z,82.94
2022-11-25T00:58:28.978Z,83.03
2022-11-25T00:58:44.774Z,82.68
2022-11-25T00:58:57.288Z,82.53
2022-11-25T00:59:09.658Z,82.27
2022-11-25T00:59:21.678Z,81.91
2022-11-25T00:59:33.618Z,81.94
2022-11-25T00:59:46.165Z,81.80
2022-11-25T00:59:58.041Z,81.72
2022-11-25T01:00:11.492Z,81.24
2022-11-25T01:00:23.520Z,81.23
2022-11-25T01:00:35.442Z,80.89
2022-11-25T01:00:47.433Z,80.69
2022-11-25T01:01:02.051Z,80.97
2022-11-25T01:01:14.150Z,80.80
2022-11-25T01:01:26.301Z,81.00
2022-11-25T01:01:38.732Z,80.79
2022-11-25T01:01:50.881Z,80.96
2022-11-25T01:02:03.102Z,81.00
2022-11-25T01:02:16.890Z,80.87
2022-11-25T01:02:28.970Z,80.56
2022-11-25T01:02:40.944Z,80.67
2022-11-25T01:02:52.874Z,80.56
2022-11-25T01:03:04.817Z,80.73
2022-11-25T01:03:16.734Z,80.89
2022-11-25T01:03:28.631Z,80.99
2022-11-25T01:03:40.669Z,80.54
2022-11-25T01:03:53.899Z,80.54
2022-11-25T01:04:07.156Z,80.77
2022-11-25T01:04:19.181Z,80.71
2022-11-25T01:04:31.230Z,80.79
2022-11-25T01:04:43.117Z,80.86
2022-11-25T01:04:55.104Z,81.17
2022-11-25T01:05:07.306Z,80.69
2022-11-25T01:05:19.182Z,81.09
2022-11-25T01:05:32.437Z,80.80
2022-11-25T01:05:44.320Z,81.05
2022-11-25T01:06:01.376Z,81.18
2022-11-25T01:06:13.291Z,81.19
2022-11-25T01:06:25.409Z,81.32
2022-11-25T01:06:38.329Z,81.31
2022-11-25T01:06:50.263Z,81.28
2022-11-25T01:07:02.398Z,81.13
2022-11-25T01:07:15.376Z,80.45
2022-11-25T01:07:27.574Z,80.23
2022-11-25T01:07:39.468Z,79.55
2022-11-25T01:07:51.461Z,79.43
2022-11-25T01:08:03.457Z,79.14
2022-11-25T01:08:15.441Z,78.53
2022-11-25T01:08:29.726Z,78.97
2022-11-25T01:08:41.709Z,79.09
2022-11-25T01:08:53.875Z,79.22
2022-11-25T01:09:07.604Z,79.84
2022-11-25T01:09:19.993Z,80.12
2022-11-25T01:09:32.266Z,80.22
2022-11-25T01:09:44.327Z,80.49
2022-11-25T01:09:56.987Z,80.63
2022-11-25T01:10:09.302Z,80.57
2022-11-25T01:10:21.292Z,80.51
2022-11-25T01:10:33.207Z,80.68
2022-11-25T01:10:45.125Z,80.85
2022-11-25T01:11:00.909Z,80.96
2022-11-25T01:11:15.518Z,80.89
2022-11-25T01:11:27.433Z,80.90
2022-11-25T01:11:40.056Z,80.99
2022-11-25T01:11:52.788Z,81.00
2022-11-25T01:12:05.090Z,81.22
2022-11-25T01:12:17.367Z,80.92
2022-11-25T01:12:29.329Z,80.89
2022-11-25T01:12:41.190Z,80.78
2022-11-25T01:12:53.111Z,80.61
2022-11-25T01:13:04.975Z,80.87
2022-11-25T01:13:16.844Z,80.63
2022-11-25T01:13:28.997Z,80.52
2022-11-25T01:13:41.818Z,80.49
2022-11-25T01:14:00.881Z,80.40
2022-11-25T01:14:13.225Z,80.78
2022-11-25T01:14:25.603Z,80.75
2022-11-25T01:14:37.902Z,80.19
2022-11-25T01:14:49.973Z,80.29
2022-11-25T01:15:01.896Z,79.75
2022-11-25T01:15:13.828Z,79.86
2022-11-25T01:15:25.717Z,79.91
2022-11-25T01:15:37.731Z,79.97
2022-11-25T01:15:49.589Z,79.96
2022-11-25T01:16:06.240Z,80.21
2022-11-25T01:16:19.934Z,80.04
2022-11-25T01:16:32.137Z,79.91
2022-11-25T01:16:44.165Z,79.80
2022-11-25T01:16:56.159Z,79.42
2022-11-25T01:17:08.250Z,79.02
2022-11-25T01:17:20.168Z,79.21
2022-11-25T01:17:32.463Z,79.40
2022-11-25T01:17:44.468Z,79.14
2022-11-25T01:17:56.387Z,79.80
2022-11-25T01:18:08.301Z,79.64
2022-11-25T01:18:20.533Z,79.06
2022-11-25T01:18:33.049Z,79.54
2022-11-25T01:18:45.668Z,79.27
2022-11-25T01:19:01.832Z,79.41
2022-11-25T01:19:14.397Z,79.54
2022-11-25T01:19:26.362Z,79.63
2022-11-25T01:19:40.219Z,79.83
2022-11-25T01:19:52.178Z,79.66
2022-11-25T01:20:04.529Z,79.53
2022-11-25T01:20:16.939Z,79.62
2022-11-25T01:20:28.863Z,79.22
2022-11-25T01:20:40.737Z,78.72
2022-11-25T01:20:52.642Z,77.88
2022-11-25T01:21:28.930Z,78.06
2022-11-25T01:21:40.909Z,78.37
2022-11-25T01:21:52.788Z,78.08
2022-11-25T01:22:04.730Z,77.74
2022-11-25T01:22:16.613Z,77.71
2022-11-25T01:22:28.478Z,77.54
2022-11-25T01:22:40.362Z,77.37
2022-11-25T01:22:53.007Z,77.17
2022-11-25T01:23:04.900Z,77.34
2022-11-25T01:23:16.775Z,77.45
2022-11-25T01:23:28.734Z,77.02
2022-11-25T01:23:41.938Z,77.12
2022-11-25T01:23:54.262Z,76.70
2022-11-25T01:24:07.402Z,77.12
2022-11-25T01:24:20.565Z,77.08
2022-11-25T01:24:32.937Z,76.99
2022-11-25T01:24:44.937Z,76.87
2022-11-25T01:24:56.861Z,77.21
2022-11-25T01:25:08.921Z,76.53
2022-11-25T01:25:20.857Z,76.34
2022-11-25T01:25:36.876Z,76.21
2022-11-25T01:25:48.817Z,75.64
2022-11-25T01:26:05.161Z,76.10
2022-11-25T01:26:19.877Z,76.23
2022-11-25T01:26:32.617Z,76.11
2022-11-25T01:26:44.856Z,76.19
2022-11-25T01:26:56.855Z,76.33
2022-11-25T01:27:08.730Z,76.88
2022-11-25T01:27:20.692Z,77.27
2022-11-25T01:27:33.298Z,77.51
2022-11-25T01:27:45.215Z,77.46
2022-11-25T01:27:57.088Z,77.66
2022-11-25T01:28:09.027Z,77.33
2022-11-25T01:28:20.901Z,77.88
2022-11-25T01:28:33.049Z,77.85
2022-11-25T01:28:45.336Z,77.29
2022-11-25T01:29:00.272Z,77.08
2022-11-25T01:29:18.199Z,77.59
2022-11-25T01:29:30.284Z,77.47
2022-11-25T01:29:42.920Z,77.49
2022-11-25T01:29:54.851Z,77.55
2022-11-25T01:30:07.605Z,77.29
2022-11-25T01:30:19.529Z,77.38
2022-11-25T01:30:31.810Z,77.68
2022-11-25T01:30:43.754Z,77.71
2022-11-25T01:31:03.042Z,77.58
2022-11-25T01:31:14.970Z,77.74
2022-11-25T01:31:30.641Z,77.58
2022-11-25T01:31:43.465Z,77.67
2022-11-25T01:31:56.753Z,78.05
2022-11-25T01:32:08.764Z,77.85
2022-11-25T01:32:20.730Z,78.14
2022-11-25T01:32:32.605Z,78.03
2022-11-25T01:32:44.475Z,78.26
2022-11-25T01:32:56.510Z,78.24
2022-11-25T01:33:08.454Z,77.86
2022-11-25T01:33:20.352Z,77.80
2022-11-25T01:33:33.295Z,78.50
2022-11-25T01:33:46.807Z,78.30
2022-11-25T01:34:07.937Z,78.06
2022-11-25T01:34:25.578Z,78.31
2022-11-25T01:34:37.985Z,78.25
2022-11-25T01:34:50.114Z,78.38
2022-11-25T01:35:01.988Z,78.69
2022-11-25T01:35:13.873Z,78.70
2022-11-25T01:35:25.754Z,78.37
2022-11-25T01:35:38.598Z,78.59
2022-11-25T01:35:50.465Z,78.32
2022-11-25T01:36:08.125Z,78.71
2022-11-25T01:36:20.034Z,78.47
2022-11-25T01:36:32.169Z,79.06
2022-11-25T01:36:44.142Z,79.41
2022-11-25T01:36:56.014Z,79.40
2022-11-25T01:37:07.939Z,79.20
2022-11-25T01:37:19.809Z,79.51
2022-11-25T01:37:31.947Z,79.84
2022-11-25T01:37:43.812Z,80.01
2022-11-25T01:37:55.705Z,80.52
2022-11-25T01:38:07.603Z,80.45
2022-11-25T01:38:19.509Z,80.39
2022-11-25T01:38:32.452Z,80.74
2022-11-25T01:38:45.781Z,81.51
2022-11-25T01:38:59.621Z,81.41
2022-11-25T01:39:25.630Z,81.61
2022-11-25T01:39:42.211Z,81.24
2022-11-25T01:39:54.178Z,81.13
2022-11-25T01:40:06.956Z,81.34
2022-11-25T01:40:18.850Z,81.22
2022-11-25T01:40:30.710Z,81.51
2022-11-25T01:40:42.617Z,81.53
2022-11-25T01:40:54.557Z,81.42
2022-11-25T01:41:08.454Z,80.81
2022-11-25T01:41:22.148Z,81.14
2022-11-25T01:41:35.419Z,80.91
2022-11-25T01:41:48.263Z,80.60
2022-11-25T01:42:01.369Z,80.77
2022-11-25T01:42:13.333Z,80.48
2022-11-25T01:42:30.232Z,80.24
2022-11-25T01:42:49.065Z,80.33
2022-11-25T01:43:00.955Z,80.42
2022-11-25T01:43:16.105Z,80.27
2022-11-25T01:43:28.765Z,80.93
2022-11-25T01:43:41.456Z,80.60
2022-11-25T01:44:18.067Z,80.78
2022-11-25T01:44:32.400Z,80.54
2022-11-25T01:44:44.342Z,80.88
2022-11-25T01:45:20.801Z,81.76
2022-11-25T01:45:37.570Z,81.91
2022-11-25T01:45:49.768Z,82.26
2022-11-25T01:46:04.225Z,81.78
2022-11-25T01:46:24.068Z,82.12
2022-11-25T01:47:03.606Z,82.06
2022-11-25T01:47:24.776Z,82.02
2022-11-25T01:47:36.687Z,82.20
2022-11-25T01:47:56.494Z,81.76
2022-11-25T01:48:22.006Z,81.31
2022-11-25T01:48:38.813Z,81.45
2022-11-25T01:48:56.427Z,81.25
2022-11-25T01:49:15.091Z,81.30
2022-11-25T01:49:32.459Z,81.28
2022-11-25T01:49:46.908Z,81.25
2022-11-25T01:50:04.894Z,81.03
2022-11-25T01:50:20.793Z,80.91
2022-11-25T01:50:35.044Z,80.55
2022-11-25T01:50:48.459Z,80.56
2022-11-25T01:51:00.459Z,80.98
2022-11-25T01:51:21.974Z,80.94
2022-11-25T01:51:36.348Z,80.65
2022-11-25T01:52:06.137Z,80.91
2022-11-25T01:52:29.091Z,81.35
2022-11-25T01:52:45.809Z,81.52
2022-11-25T01:52:58.351Z,81.31
2022-11-25T01:53:13.706Z,81.56
2022-11-25T01:53:26.348Z,81.45
2022-11-25T01:53:38.302Z,81.64
2022-11-25T01:53:52.423Z,81.50
2022-11-25T01:54:07.377Z,81.63
2022-11-25T01:54:23.965Z,81.87
2022-11-25T01:54:43.922Z,82.21
2022-11-25T01:55:02.715Z,81.98
2022-11-25T01:55:20.565Z,82.02
2022-11-25T01:55:34.835Z,82.11
2022-11-25T01:55:53.596Z,81.77
2022-11-25T01:56:06.698Z,81.66
2022-11-25T01:56:19.230Z,82.01
2022-11-25T01:56:35.239Z,82.14
2022-11-25T01:56:51.750Z,81.95
2022-11-25T01:57:09.429Z,82.13
2022-11-25T01:57:34.613Z,81.73
2022-11-25T01:58:25.626Z,80.95
2022-11-25T01:58:38.437Z,80.96
2022-11-25T01:58:50.502Z,80.80
2022-11-25T01:59:02.904Z,81.07
2022-11-25T01:59:14.996Z,81.26
2022-11-25T01:59:29.636Z,81.25
2022-11-25T01:59:48.333Z,81.45
2022-11-25T02:00:04.918Z,81.33
2022-11-25T02:00:17.525Z,81.64
2022-11-25T02:00:29.499Z,82.01
2022-11-25T02:00:44.070Z,82.04
2022-11-25T02:00:56.146Z,82.23
2022-11-25T02:01:08.618Z,82.07
2022-11-25T02:01:22.046Z,82.67
2022-11-25T02:01:34.229Z,83.01
2022-11-25T02:01:47.013Z,83.07
2022-11-25T02:02:00.576Z,83.37
2022-11-25T02:02:14.540Z,83.74
2022-11-25T02:02:28.228Z,83.46
2022-11-25T02:02:40.497Z,83.45
2022-11-25T02:02:54.767Z,83.31
2022-11-25T02:03:07.912Z,83.18
2022-11-25T02:03:36.881Z,83.45
2022-11-25T02:03:52.659Z,83.21
2022-11-25T02:04:06.099Z,83.05
2022-11-25T02:04:20.214Z,83.45
2022-11-25T02:04:35.886Z,83.31
2022-11-25T02:04:48.813Z,83.19
2022-11-25T02:05:03.425Z,83.07
2022-11-25T02:05:21.012Z,82.81
2022-11-25T02:05:42.081Z,82.90
2022-11-25T02:06:17.073Z,82.98
2022-11-25T02:06:35.159Z,82.14
2022-11-25T02:06:55.249Z,82.36
2022-11-25T02:07:15.494Z,82.37
2022-11-25T02:07:34.806Z,82.98
2022-11-25T02:07:49.328Z,83.41
2022-11-25T02:08:02.315Z,83.42
2022-11-25T02:08:15.890Z,83.90
2022-11-25T02:08:29.463Z,83.55
2022-11-25T02:08:46.749Z,83.72
2022-11-25T02:09:04.487Z,83.84
2022-11-25T02:09:18.443Z,83.77
2022-11-25T02:09:30.902Z,83.42
2022-11-25T02:09:43.885Z,83.71
2022-11-25T02:09:56.461Z,83.47
2022-11-25T02:10:15.717Z,83.36
2022-11-25T02:10:31.745Z,82.46
2022-11-25T02:10:44.773Z,82.32
2022-11-25T02:10:58.441Z,81.74
2022-11-25T02:11:10.358Z,81.87
2022-11-25T02:11:26.677Z,81.69
2022-11-25T02:11:41.704Z,81.51
2022-11-25T02:11:54.015Z,81.29
2022-11-25T02:12:06.306Z,80.92
2022-11-25T02:12:20.605Z,81.47
2022-11-25T02:12:35.473Z,81.26
2022-11-25T02:12:48.079Z,81.08
2022-11-25T02:13:00.787Z,81.38
2022-11-25T02:13:12.786Z,81.11
2022-11-25T02:13:25.017Z,81.60
2022-11-25T02:13:37.345Z,81.78
2022-11-25T02:13:51.335Z,81.90
2022-11-25T02:14:03.719Z,81.60
2022-11-25T02:14:18.770Z,81.99
2022-11-25T02:14:30.699Z,81.96
2022-11-25T02:14:43.402Z,81.61
2022-11-25T02:14:56.774Z,81.97
2022-11-25T02:15:09.131Z,82.03
2022-11-25T02:15:22.262Z,81.94
2022-11-25T02:15:35.208Z,82.58
2022-11-25T02:15:47.123Z,82.11
2022-11-25T02:15:59.106Z,82.08
2022-11-25T02:16:11.058Z,82.06
2022-11-25T02:16:23.154Z,82.37
2022-11-25T02:16:35.342Z,82.18
2022-11-25T02:16:47.366Z,82.24
2022-11-25T02:17:01.280Z,82.07
2022-11-25T02:17:13.299Z,82.21
2022-11-25T02:17:25.546Z,82.41
2022-11-25T02:17:37.569Z,82.27
2022-11-25T02:17:49.779Z,82.32
2022-11-25T02:18:02.005Z,82.42
2022-11-25T02:18:13.999Z,82.79
2022-11-25T02:18:26.877Z,82.89
2022-11-25T02:18:38.901Z,82.73
2022-11-25T02:18:51.515Z,82.78
2022-11-25T02:19:03.911Z,82.45
2022-11-25T02:19:39.573Z,82.56
2022-11-25T02:20:12.515Z,82.05
2022-11-25T02:20:25.356Z,82.39
2022-11-25T02:20:39.727Z,82.18
2022-11-25T02:20:52.228Z,82.09
2022-11-25T02:21:04.433Z,82.31
2022-11-25T02:21:36.634Z,81.69
2022-11-25T02:21:54.544Z,82.28
2022-11-25T02:22:15.382Z,82.45
2022-11-25T02:22:51.828Z,81.95
2022-11-25T02:23:26.275Z,81.63
2022-11-25T02:23:53.638Z,80.65
2022-11-25T02:24:34.647Z,80.43
2022-11-25T02:24:53.329Z,80.05
2022-11-25T02:25:18.101Z,79.96
2022-11-25T02:25:32.676Z,80.20
2022-11-25T02:25:46.640Z,80.17
2022-11-25T02:25:58.916Z,80.51
2022-11-25T02:26:11.080Z,80.49
2022-11-25T02:26:23.573Z,80.46
2022-11-25T02:26:35.851Z,80.21
2022-11-25T02:26:47.835Z,80.33
2022-11-25T02:27:00.100Z,80.45
2022-11-25T02:27:12.794Z,80.87
2022-11-25T02:27:24.962Z,80.88
2022-11-25T02:27:36.901Z,80.59
2022-11-25T02:27:55.169Z,80.62
2022-11-25T02:28:17.689Z,80.81
2022-11-25T02:28:31.705Z,80.65
2022-11-25T02:28:44.622Z,80.91
2022-11-25T02:28:57.488Z,80.34
2022-11-25T02:29:09.935Z,80.80
2022-11-25T02:29:22.453Z,80.76
2022-11-25T02:29:35.163Z,80.65
2022-11-25T02:29:48.534Z,80.60
2022-11-25T02:30:00.607Z,80.90
2022-11-25T02:30:13.691Z,81.23
2022-11-25T02:30:25.837Z,81.52
2022-11-25T02:30:38.496Z,81.46
2022-11-25T02:30:51.490Z,81.32
2022-11-25T02:31:03.585Z,81.47
2022-11-25T02:31:21.973Z,81.34
2022-11-25T02:31:34.048Z,81.56
2022-11-25T02:31:50.310Z,81.56
2022-11-25T02:32:02.452Z,81.30
2022-11-25T02:32:14.430Z,81.34
2022-11-25T02:32:26.509Z,81.40
2022-11-25T02:32:44.465Z,81.10
2022-11-25T02:32:58.803Z,81.08
2022-11-25T02:33:11.383Z,81.34
2022-11-25T02:33:24.208Z,81.41
2022-11-25T02:33:36.380Z,81.37
2022-11-25T02:33:48.547Z,81.02
2022-11-25T02:34:00.495Z,81.27
2022-11-25T02:34:12.437Z,80.88
2022-11-25T02:34:24.359Z,81.07
2022-11-25T02:34:36.575Z,80.80
2022-11-25T02:34:49.558Z,80.36
2022-11-25T02:35:01.493Z,80.70
2022-11-25T02:35:26.777Z,80.65
2022-11-25T02:36:03.286Z,81.00
2022-11-25T02:36:21.489Z,80.89
2022-11-25T02:36:34.205Z,81.00
2022-11-25T02:36:46.151Z,80.72
2022-11-25T02:36:59.249Z,80.76
2022-11-25T02:37:11.233Z,80.70
2022-11-25T02:37:24.434Z,80.98
2022-11-25T02:37:36.382Z,80.45
2022-11-25T02:37:48.327Z,80.46
2022-11-25T02:38:17.440Z,80.52
2022-11-25T02:38:40.782Z,80.51
2022-11-25T02:39:00.568Z,80.56
2022-11-25T02:39:13.445Z,80.32
2022-11-25T02:39:25.721Z,80.83
2022-11-25T02:39:37.718Z,80.61
2022-11-25T02:39:51.488Z,80.95
2022-11-25T02:40:03.682Z,80.84
2022-11-25T02:40:16.135Z,80.54
2022-11-25T02:40:29.252Z,80.62
2022-11-25T02:40:54.971Z,80.83
2022-11-25T02:41:13.357Z,80.88
2022-11-25T02:41:32.631Z,80.12
2022-11-25T02:41:49.971Z,80.04
2022-11-25T02:42:01.924Z,80.24
2022-11-25T02:42:15.837Z,79.79
2022-11-25T02:42:29.834Z,79.44
2022-11-25T02:42:41.826Z,79.82
2022-11-25T02:42:56.557Z,79.69
2022-11-25T02:43:09.025Z,79.92
2022-11-25T02:43:21.962Z,79.69
2022-11-25T02:43:33.879Z,79.93
2022-11-25T02:43:45.916Z,79.92
2022-11-25T02:43:58.413Z,79.85
2022-11-25T02:44:10.481Z,80.32
2022-11-25T02:44:22.684Z,80.54
2022-11-25T02:44:34.811Z,80.92
2022-11-25T02:44:48.500Z,80.35
2022-11-25T02:45:00.428Z,80.69
2022-11-25T02:45:15.586Z,80.60
2022-11-25T02:45:44.774Z,80.70
2022-11-25T02:46:03.956Z,80.69
2022-11-25T02:46:22.419Z,80.65
2022-11-25T02:46:34.901Z,80.27
2022-11-25T02:46:46.786Z,79.93
2022-11-25T02:46:58.901Z,79.60
2022-11-25T02:47:10.823Z,79.42
2022-11-25T02:47:22.694Z,79.70
2022-11-25T02:47:34.620Z,79.78
2022-11-25T02:47:46.588Z,79.71
2022-11-25T02:47:59.193Z,79.70
2022-11-25T02:48:11.213Z,79.82
2022-11-25T02:48:39.697Z,79.59
2022-11-25T02:49:13.485Z,79.36
2022-11-25T02:49:25.410Z,79.83
2022-11-25T02:49:37.360Z,79.79
2022-11-25T02:49:49.269Z,79.73
2022-11-25T02:50:01.168Z,79.85
2022-11-25T02:50:13.842Z,79.56
2022-11-25T02:50:25.803Z,79.62
2022-11-25T02:50:37.718Z,79.08
2022-11-25T02:50:50.088Z,79.36
2022-11-25T02:51:03.053Z,79.31
2022-11-25T02:51:17.856Z,79.38
2022-11-25T02:51:31.535Z,79.41
2022-11-25T02:51:46.379Z,79.63
2022-11-25T02:51:58.371Z,79.67
2022-11-25T02:52:10.700Z,79.70
2022-11-25T02:52:22.656Z,79.63
2022-11-25T02:52:34.577Z,79.89
2022-11-25T02:52:46.714Z,79.79
2022-11-25T02:52:58.696Z,79.79
2022-11-25T02:53:11.098Z,79.50
2022-11-25T02:53:23.296Z,79.51
2022-11-25T02:53:35.664Z,80.27
2022-11-25T02:53:47.698Z,79.69
2022-11-25T02:54:01.351Z,80.03
2022-11-25T02:54:14.641Z,79.33
2022-11-25T02:54:26.564Z,79.59
2022-11-25T02:54:38.534Z,79.03
2022-11-25T02:54:50.706Z,78.98
2022-11-25T02:55:02.624Z,79.34
2022-11-25T02:55:14.795Z,79.22
2022-11-25T02:55:26.794Z,79.52
2022-11-25T02:55:38.882Z,79.29
2022-11-25T02:55:51.475Z,79.55
2022-11-25T02:56:03.518Z,79.16
2022-11-25T02:56:16.961Z,78.96
2022-11-25T02:56:32.213Z,79.04
2022-11-25T02:56:44.392Z,78.48
2022-11-25T02:56:56.458Z,79.08
2022-11-25T02:57:08.524Z,79.02
2022-11-25T02:57:20.849Z,79.01
2022-11-25T02:57:32.716Z,79.18
2022-11-25T02:57:44.604Z,79.07
2022-11-25T02:57:56.492Z,79.40
2022-11-25T02:58:09.193Z,79.53
2022-11-25T02:58:21.365Z,78.98
2022-11-25T02:58:33.468Z,78.83
2022-11-25T02:58:45.809Z,79.15
2022-11-25T02:58:58.404Z,78.73
2022-11-25T02:59:11.206Z,78.39
2022-11-25T02:59:23.124Z,78.85
2022-11-25T02:59:35.093Z,78.37
2022-11-25T02:59:46.989Z,78.50
2022-11-25T02:59:58.898Z,78.93
2022-11-25T03:00:11.437Z,78.33
2022-11-25T03:00:23.724Z,79.03
2022-11-25T03:00:35.877Z,78.77